sensor_id;sensor_type;location;lat;lon;timestamp;P1;durP1;ratioP1;P2;durP2;ratioP2
17214;SDS011;8723;51.502;6.918;2024-03-02T00:00:13;2.78;;;1.52;;
17214;SDS011;8723;51.502;6.918;2024-03-02T00:02:42;1.65;;;1.40;;
17214;SDS011;8723;51.502;6.918;2024-03-02T00:05:10;1.63;;;1.52;;
17214;SDS011;8723;51.502;6.918;2024-03-02T00:07:38;2.50;;;1.65;;
17214;SDS011;8723;51.502;6.918;2024-03-02T00:10:08;1.67;;;1.58;;
17214;SDS011;8723;51.502;6.918;2024-03-02T00:12:37;1.90;;;1.55;;
17214;SDS011;8723;51.502;6.918;2024-03-02T00:15:05;2.08;;;1.70;;
17214;SDS011;8723;51.502;6.918;2024-03-02T00:17:33;3.13;;;2.10;;
17214;SDS011;8723;51.502;6.918;2024-03-02T00:20:02;1.63;;;1.50;;
17214;SDS011;8723;51.502;6.918;2024-03-02T00:22:30;1.98;;;1.50;;
17214;SDS011;8723;51.502;6.918;2024-03-02T00:24:57;1.70;;;1.60;;
17214;SDS011;8723;51.502;6.918;2024-03-02T00:27:24;3.00;;;1.50;;
17214;SDS011;8723;51.502;6.918;2024-03-02T00:29:52;2.22;;;1.67;;
17214;SDS011;8723;51.502;6.918;2024-03-02T00:32:19;2.70;;;1.60;;
17214;SDS011;8723;51.502;6.918;2024-03-02T00:34:46;2.60;;;1.40;;
17214;SDS011;8723;51.502;6.918;2024-03-02T00:37:14;2.00;;;1.50;;
17214;SDS011;8723;51.502;6.918;2024-03-02T00:39:42;1.70;;;1.60;;
17214;SDS011;8723;51.502;6.918;2024-03-02T00:42:09;1.53;;;1.43;;
17214;SDS011;8723;51.502;6.918;2024-03-02T00:44:38;1.50;;;1.40;;
17214;SDS011;8723;51.502;6.918;2024-03-02T00:47:05;2.22;;;1.50;;
17214;SDS011;8723;51.502;6.918;2024-03-02T00:49:32;2.13;;;1.58;;
17214;SDS011;8723;51.502;6.918;2024-03-02T00:51:59;1.40;;;1.30;;
17214;SDS011;8723;51.502;6.918;2024-03-02T00:54:28;2.15;;;1.60;;
17214;SDS011;8723;51.502;6.918;2024-03-02T00:56:56;2.20;;;1.50;;
17214;SDS011;8723;51.502;6.918;2024-03-02T00:59:24;2.17;;;1.48;;
17214;SDS011;8723;51.502;6.918;2024-03-02T01:01:51;2.20;;;1.75;;
17214;SDS011;8723;51.502;6.918;2024-03-02T01:04:19;2.65;;;1.52;;
17214;SDS011;8723;51.502;6.918;2024-03-02T01:06:46;1.88;;;1.50;;
17214;SDS011;8723;51.502;6.918;2024-03-02T01:09:13;2.00;;;1.50;;
17214;SDS011;8723;51.502;6.918;2024-03-02T01:11:43;1.58;;;1.38;;
17214;SDS011;8723;51.502;6.918;2024-03-02T01:14:10;2.00;;;1.40;;
17214;SDS011;8723;51.502;6.918;2024-03-02T01:16:37;2.70;;;1.58;;
17214;SDS011;8723;51.502;6.918;2024-03-02T01:19:04;1.30;;;1.20;;
17214;SDS011;8723;51.502;6.918;2024-03-02T01:21:31;1.83;;;1.33;;
17214;SDS011;8723;51.502;6.918;2024-03-02T01:23:58;2.10;;;1.60;;
17214;SDS011;8723;51.502;6.918;2024-03-02T01:26:26;2.10;;;1.45;;
17214;SDS011;8723;51.502;6.918;2024-03-02T01:28:54;2.97;;;1.45;;
17214;SDS011;8723;51.502;6.918;2024-03-02T01:31:21;1.55;;;1.30;;
17214;SDS011;8723;51.502;6.918;2024-03-02T01:33:48;3.05;;;1.55;;
17214;SDS011;8723;51.502;6.918;2024-03-02T01:36:16;2.25;;;1.42;;
17214;SDS011;8723;51.502;6.918;2024-03-02T01:38:43;1.88;;;1.40;;
17214;SDS011;8723;51.502;6.918;2024-03-02T01:41:10;1.92;;;1.42;;
17214;SDS011;8723;51.502;6.918;2024-03-02T01:43:38;1.40;;;1.30;;
17214;SDS011;8723;51.502;6.918;2024-03-02T01:46:06;1.75;;;1.50;;
17214;SDS011;8723;51.502;6.918;2024-03-02T01:48:34;2.97;;;1.50;;
17214;SDS011;8723;51.502;6.918;2024-03-02T01:51:01;2.95;;;1.50;;
17214;SDS011;8723;51.502;6.918;2024-03-02T01:53:29;1.83;;;1.30;;
17214;SDS011;8723;51.502;6.918;2024-03-02T01:55:56;2.17;;;1.40;;
17214;SDS011;8723;51.502;6.918;2024-03-02T01:58:23;1.83;;;1.50;;
17214;SDS011;8723;51.502;6.918;2024-03-02T02:00:50;2.78;;;1.60;;
17214;SDS011;8723;51.502;6.918;2024-03-02T02:03:18;1.67;;;1.27;;
17214;SDS011;8723;51.502;6.918;2024-03-02T02:05:46;1.55;;;1.45;;
17214;SDS011;8723;51.502;6.918;2024-03-02T02:08:13;2.00;;;1.40;;
17214;SDS011;8723;51.502;6.918;2024-03-02T02:10:40;1.70;;;1.38;;
17214;SDS011;8723;51.502;6.918;2024-03-02T02:13:07;2.95;;;1.40;;
17214;SDS011;8723;51.502;6.918;2024-03-02T02:15:34;2.60;;;1.80;;
17214;SDS011;8723;51.502;6.918;2024-03-02T02:18:01;1.90;;;1.60;;
17214;SDS011;8723;51.502;6.918;2024-03-02T02:20:30;2.60;;;1.70;;
17214;SDS011;8723;51.502;6.918;2024-03-02T02:22:59;3.50;;;1.60;;
17214;SDS011;8723;51.502;6.918;2024-03-02T02:25:27;2.65;;;1.52;;
17214;SDS011;8723;51.502;6.918;2024-03-02T02:27:54;2.03;;;1.50;;
17214;SDS011;8723;51.502;6.918;2024-03-02T02:30:23;1.50;;;1.40;;
17214;SDS011;8723;51.502;6.918;2024-03-02T02:32:50;4.43;;;1.67;;
17214;SDS011;8723;51.502;6.918;2024-03-02T02:35:17;2.00;;;1.50;;
17214;SDS011;8723;51.502;6.918;2024-03-02T02:37:45;2.17;;;1.50;;
17214;SDS011;8723;51.502;6.918;2024-03-02T02:40:14;1.50;;;1.40;;
17214;SDS011;8723;51.502;6.918;2024-03-02T02:42:41;1.50;;;1.40;;
17214;SDS011;8723;51.502;6.918;2024-03-02T02:45:10;2.20;;;1.30;;
17214;SDS011;8723;51.502;6.918;2024-03-02T02:47:39;1.92;;;1.50;;
17214;SDS011;8723;51.502;6.918;2024-03-02T02:50:08;2.40;;;1.30;;
17214;SDS011;8723;51.502;6.918;2024-03-02T02:52:37;1.83;;;1.42;;
17214;SDS011;8723;51.502;6.918;2024-03-02T02:55:07;2.33;;;1.30;;
17214;SDS011;8723;51.502;6.918;2024-03-02T02:57:38;1.27;;;1.17;;
17214;SDS011;8723;51.502;6.918;2024-03-02T03:00:09;1.67;;;1.20;;
17214;SDS011;8723;51.502;6.918;2024-03-02T03:02:40;1.40;;;1.30;;
17214;SDS011;8723;51.502;6.918;2024-03-02T03:05:09;1.60;;;1.50;;
17214;SDS011;8723;51.502;6.918;2024-03-02T03:07:39;1.40;;;1.30;;
17214;SDS011;8723;51.502;6.918;2024-03-02T03:10:10;1.47;;;1.20;;
17214;SDS011;8723;51.502;6.918;2024-03-02T03:12:40;1.80;;;1.25;;
17214;SDS011;8723;51.502;6.918;2024-03-02T03:15:09;1.90;;;1.23;;
17214;SDS011;8723;51.502;6.918;2024-03-02T03:17:40;2.10;;;1.40;;
17214;SDS011;8723;51.502;6.918;2024-03-02T03:20:09;2.30;;;1.42;;
17214;SDS011;8723;51.502;6.918;2024-03-02T03:22:38;2.47;;;1.50;;
17214;SDS011;8723;51.502;6.918;2024-03-02T03:25:07;2.20;;;1.38;;
17214;SDS011;8723;51.502;6.918;2024-03-02T03:27:36;1.98;;;1.50;;
17214;SDS011;8723;51.502;6.918;2024-03-02T03:30:07;1.50;;;1.40;;
17214;SDS011;8723;51.502;6.918;2024-03-02T03:32:36;1.90;;;1.40;;
17214;SDS011;8723;51.502;6.918;2024-03-02T03:35:06;2.53;;;1.48;;
17214;SDS011;8723;51.502;6.918;2024-03-02T03:37:35;1.42;;;1.20;;
17214;SDS011;8723;51.502;6.918;2024-03-02T03:40:05;2.35;;;1.52;;
17214;SDS011;8723;51.502;6.918;2024-03-02T03:42:36;2.03;;;1.50;;
17214;SDS011;8723;51.502;6.918;2024-03-02T03:45:07;2.58;;;1.25;;
17214;SDS011;8723;51.502;6.918;2024-03-02T03:47:37;4.10;;;1.60;;
17214;SDS011;8723;51.502;6.918;2024-03-02T03:50:06;1.30;;;1.20;;
17214;SDS011;8723;51.502;6.918;2024-03-02T03:52:36;1.35;;;1.25;;
17214;SDS011;8723;51.502;6.918;2024-03-02T03:55:06;2.38;;;1.35;;
17214;SDS011;8723;51.502;6.918;2024-03-02T03:57:35;1.53;;;1.40;;
17214;SDS011;8723;51.502;6.918;2024-03-02T04:00:03;2.30;;;1.40;;
17214;SDS011;8723;51.502;6.918;2024-03-02T04:02:35;3.90;;;1.40;;
17214;SDS011;8723;51.502;6.918;2024-03-02T04:05:04;1.60;;;1.30;;
17214;SDS011;8723;51.502;6.918;2024-03-02T04:07:35;2.05;;;1.40;;
17214;SDS011;8723;51.502;6.918;2024-03-02T04:10:09;1.95;;;1.40;;
17214;SDS011;8723;51.502;6.918;2024-03-02T04:12:37;1.33;;;1.00;;
17214;SDS011;8723;51.502;6.918;2024-03-02T04:15:06;3.15;;;1.58;;
17214;SDS011;8723;51.502;6.918;2024-03-02T04:17:34;2.20;;;1.30;;
17214;SDS011;8723;51.502;6.918;2024-03-02T04:20:02;1.30;;;1.20;;
17214;SDS011;8723;51.502;6.918;2024-03-02T04:22:32;1.40;;;1.30;;
17214;SDS011;8723;51.502;6.918;2024-03-02T04:24:58;2.63;;;1.33;;
17214;SDS011;8723;51.502;6.918;2024-03-02T04:27:25;1.52;;;1.40;;
17214;SDS011;8723;51.502;6.918;2024-03-02T04:29:52;1.98;;;1.50;;
17214;SDS011;8723;51.502;6.918;2024-03-02T04:32:19;3.92;;;1.80;;
17214;SDS011;8723;51.502;6.918;2024-03-02T04:34:48;3.05;;;1.58;;
17214;SDS011;8723;51.502;6.918;2024-03-02T04:37:15;1.92;;;1.50;;
17214;SDS011;8723;51.502;6.918;2024-03-02T04:39:42;1.77;;;1.52;;
17214;SDS011;8723;51.502;6.918;2024-03-02T04:42:09;2.60;;;1.70;;
17214;SDS011;8723;51.502;6.918;2024-03-02T04:44:36;1.48;;;1.30;;
17214;SDS011;8723;51.502;6.918;2024-03-02T04:47:04;1.63;;;1.52;;
17214;SDS011;8723;51.502;6.918;2024-03-02T04:49:31;2.40;;;1.60;;
17214;SDS011;8723;51.502;6.918;2024-03-02T04:51:59;1.85;;;1.30;;
17214;SDS011;8723;51.502;6.918;2024-03-02T04:54:27;2.40;;;1.50;;
17214;SDS011;8723;51.502;6.918;2024-03-02T04:56:54;2.50;;;1.50;;
17214;SDS011;8723;51.502;6.918;2024-03-02T04:59:21;2.20;;;1.60;;
17214;SDS011;8723;51.502;6.918;2024-03-02T05:01:48;3.00;;;1.40;;
17214;SDS011;8723;51.502;6.918;2024-03-02T05:04:15;2.05;;;1.40;;
17214;SDS011;8723;51.502;6.918;2024-03-02T05:06:43;1.58;;;1.48;;
17214;SDS011;8723;51.502;6.918;2024-03-02T05:09:17;2.17;;;1.70;;
17214;SDS011;8723;51.502;6.918;2024-03-02T05:11:44;1.85;;;1.65;;
17214;SDS011;8723;51.502;6.918;2024-03-02T05:14:40;1.95;;;1.60;;
17214;SDS011;8723;51.502;6.918;2024-03-02T05:17:07;2.08;;;1.70;;
17214;SDS011;8723;51.502;6.918;2024-03-02T05:19:34;1.60;;;1.40;;
17214;SDS011;8723;51.502;6.918;2024-03-02T05:22:02;2.90;;;2.00;;
17214;SDS011;8723;51.502;6.918;2024-03-02T05:24:30;2.55;;;1.90;;
17214;SDS011;8723;51.502;6.918;2024-03-02T05:26:57;2.08;;;1.88;;
17214;SDS011;8723;51.502;6.918;2024-03-02T05:29:24;2.30;;;1.77;;
17214;SDS011;8723;51.502;6.918;2024-03-02T05:31:51;2.40;;;1.85;;
17214;SDS011;8723;51.502;6.918;2024-03-02T05:34:18;1.83;;;1.70;;
17214;SDS011;8723;51.502;6.918;2024-03-02T05:36:46;1.80;;;1.70;;
17214;SDS011;8723;51.502;6.918;2024-03-02T05:39:13;2.80;;;1.90;;
17214;SDS011;8723;51.502;6.918;2024-03-02T05:41:42;2.55;;;2.00;;
17214;SDS011;8723;51.502;6.918;2024-03-02T05:44:09;2.30;;;1.85;;
17214;SDS011;8723;51.502;6.918;2024-03-02T05:46:36;2.45;;;1.95;;
17214;SDS011;8723;51.502;6.918;2024-03-02T05:49:03;2.88;;;2.00;;
17214;SDS011;8723;51.502;6.918;2024-03-02T05:51:30;2.00;;;1.80;;
17214;SDS011;8723;51.502;6.918;2024-03-02T05:53:57;4.37;;;2.10;;
17214;SDS011;8723;51.502;6.918;2024-03-02T05:56:24;2.50;;;1.90;;
17214;SDS011;8723;51.502;6.918;2024-03-02T05:58:53;3.53;;;1.88;;
17214;SDS011;8723;51.502;6.918;2024-03-02T06:01:33;3.60;;;2.00;;
17214;SDS011;8723;51.502;6.918;2024-03-02T06:04:00;3.30;;;1.97;;
17214;SDS011;8723;51.502;6.918;2024-03-02T06:06:27;2.10;;;1.90;;
17214;SDS011;8723;51.502;6.918;2024-03-02T06:08:55;1.90;;;1.80;;
17214;SDS011;8723;51.502;6.918;2024-03-02T06:11:22;2.03;;;1.83;;
17214;SDS011;8723;51.502;6.918;2024-03-02T06:13:49;2.10;;;1.90;;
17214;SDS011;8723;51.502;6.918;2024-03-02T06:16:18;2.27;;;1.90;;
17214;SDS011;8723;51.502;6.918;2024-03-02T06:18:45;3.75;;;1.95;;
17214;SDS011;8723;51.502;6.918;2024-03-02T06:21:12;2.40;;;1.87;;
17214;SDS011;8723;51.502;6.918;2024-03-02T06:23:39;2.85;;;2.05;;
17214;SDS011;8723;51.502;6.918;2024-03-02T06:26:06;2.50;;;1.90;;
17214;SDS011;8723;51.502;6.918;2024-03-02T06:28:33;2.88;;;2.13;;
17214;SDS011;8723;51.502;6.918;2024-03-02T06:31:01;2.17;;;1.98;;
17214;SDS011;8723;51.502;6.918;2024-03-02T06:33:29;2.88;;;2.05;;
17214;SDS011;8723;51.502;6.918;2024-03-02T06:35:56;2.75;;;2.00;;
17214;SDS011;8723;51.502;6.918;2024-03-02T06:38:24;2.10;;;1.98;;
17214;SDS011;8723;51.502;6.918;2024-03-02T06:40:51;2.25;;;2.00;;
17214;SDS011;8723;51.502;6.918;2024-03-02T06:43:18;2.22;;;1.88;;
17214;SDS011;8723;51.502;6.918;2024-03-02T06:45:48;2.92;;;2.10;;
17214;SDS011;8723;51.502;6.918;2024-03-02T06:48:15;2.77;;;2.03;;
17214;SDS011;8723;51.502;6.918;2024-03-02T06:50:46;2.50;;;1.83;;
17214;SDS011;8723;51.502;6.918;2024-03-02T06:53:13;3.30;;;1.95;;
17214;SDS011;8723;51.502;6.918;2024-03-02T06:55:42;3.20;;;2.10;;
17214;SDS011;8723;51.502;6.918;2024-03-02T06:58:10;3.10;;;2.10;;
17214;SDS011;8723;51.502;6.918;2024-03-02T07:00:37;2.97;;;2.10;;
17214;SDS011;8723;51.502;6.918;2024-03-02T07:03:04;2.63;;;2.10;;
17214;SDS011;8723;51.502;6.918;2024-03-02T07:05:31;2.63;;;1.90;;
17214;SDS011;8723;51.502;6.918;2024-03-02T07:08:00;3.38;;;2.15;;
17214;SDS011;8723;51.502;6.918;2024-03-02T07:10:28;2.88;;;2.10;;
17214;SDS011;8723;51.502;6.918;2024-03-02T07:12:55;2.53;;;2.10;;
17214;SDS011;8723;51.502;6.918;2024-03-02T07:15:22;3.10;;;2.03;;
17214;SDS011;8723;51.502;6.918;2024-03-02T07:18:03;2.53;;;2.10;;
17214;SDS011;8723;51.502;6.918;2024-03-02T07:20:31;2.92;;;2.20;;
17214;SDS011;8723;51.502;6.918;2024-03-02T07:22:59;3.30;;;2.20;;
17214;SDS011;8723;51.502;6.918;2024-03-02T07:25:26;2.67;;;2.10;;
17214;SDS011;8723;51.502;6.918;2024-03-02T07:27:53;2.85;;;1.90;;
17214;SDS011;8723;51.502;6.918;2024-03-02T07:30:21;4.68;;;2.45;;
17214;SDS011;8723;51.502;6.918;2024-03-02T07:32:49;3.90;;;2.15;;
17214;SDS011;8723;51.502;6.918;2024-03-02T07:35:16;3.55;;;2.20;;
17214;SDS011;8723;51.502;6.918;2024-03-02T07:37:44;2.90;;;2.30;;
17214;SDS011;8723;51.502;6.918;2024-03-02T07:40:13;4.15;;;3.00;;
17214;SDS011;8723;51.502;6.918;2024-03-02T07:42:40;2.95;;;2.65;;
17214;SDS011;8723;51.502;6.918;2024-03-02T07:45:07;3.60;;;2.57;;
17214;SDS011;8723;51.502;6.918;2024-03-02T07:47:35;3.70;;;2.30;;
17214;SDS011;8723;51.502;6.918;2024-03-02T07:50:02;4.20;;;2.73;;
17214;SDS011;8723;51.502;6.918;2024-03-02T07:52:31;3.95;;;2.88;;
17214;SDS011;8723;51.502;6.918;2024-03-02T07:54:58;3.55;;;2.50;;
17214;SDS011;8723;51.502;6.918;2024-03-02T07:57:26;2.85;;;2.30;;
17214;SDS011;8723;51.502;6.918;2024-03-02T07:59:54;3.08;;;2.78;;
17214;SDS011;8723;51.502;6.918;2024-03-02T08:02:21;2.78;;;2.38;;
17214;SDS011;8723;51.502;6.918;2024-03-02T08:04:48;3.13;;;2.75;;
17214;SDS011;8723;51.502;6.918;2024-03-02T08:07:15;3.30;;;2.47;;
17214;SDS011;8723;51.502;6.918;2024-03-02T08:09:42;3.60;;;2.40;;
17214;SDS011;8723;51.502;6.918;2024-03-02T08:12:09;3.15;;;2.70;;
17214;SDS011;8723;51.502;6.918;2024-03-02T08:14:38;2.72;;;2.50;;
17214;SDS011;8723;51.502;6.918;2024-03-02T08:17:05;3.30;;;2.60;;
17214;SDS011;8723;51.502;6.918;2024-03-02T08:19:34;2.95;;;2.40;;
17214;SDS011;8723;51.502;6.918;2024-03-02T08:22:02;3.33;;;2.50;;
17214;SDS011;8723;51.502;6.918;2024-03-02T08:24:29;3.03;;;2.65;;
17214;SDS011;8723;51.502;6.918;2024-03-02T08:26:56;2.90;;;2.70;;
17214;SDS011;8723;51.502;6.918;2024-03-02T08:29:23;3.40;;;2.60;;
17214;SDS011;8723;51.502;6.918;2024-03-02T08:31:52;3.20;;;2.50;;
17214;SDS011;8723;51.502;6.918;2024-03-02T08:34:19;3.05;;;2.72;;
17214;SDS011;8723;51.502;6.918;2024-03-02T08:36:46;2.53;;;2.20;;
17214;SDS011;8723;51.502;6.918;2024-03-02T08:39:13;2.70;;;2.50;;
17214;SDS011;8723;51.502;6.918;2024-03-02T08:41:41;3.92;;;2.20;;
17214;SDS011;8723;51.502;6.918;2024-03-02T08:44:08;3.08;;;2.40;;
17214;SDS011;8723;51.502;6.918;2024-03-02T08:46:35;3.60;;;2.63;;
17214;SDS011;8723;51.502;6.918;2024-03-02T08:49:04;2.70;;;2.50;;
17214;SDS011;8723;51.502;6.918;2024-03-02T08:51:31;3.63;;;2.60;;
17214;SDS011;8723;51.502;6.918;2024-03-02T08:53:59;2.78;;;2.20;;
17214;SDS011;8723;51.502;6.918;2024-03-02T08:56:26;2.85;;;2.30;;
17214;SDS011;8723;51.502;6.918;2024-03-02T08:58:53;2.37;;;2.17;;
17214;SDS011;8723;51.502;6.918;2024-03-02T09:01:20;3.53;;;2.20;;
17214;SDS011;8723;51.502;6.918;2024-03-02T09:03:47;3.20;;;2.42;;
17214;SDS011;8723;51.502;6.918;2024-03-02T09:06:16;2.80;;;2.00;;
17214;SDS011;8723;51.502;6.918;2024-03-02T09:08:45;3.40;;;1.70;;
17214;SDS011;8723;51.502;6.918;2024-03-02T09:11:13;2.83;;;2.10;;
17214;SDS011;8723;51.502;6.918;2024-03-02T09:13:40;2.70;;;2.15;;
17214;SDS011;8723;51.502;6.918;2024-03-02T09:16:07;3.45;;;2.03;;
17214;SDS011;8723;51.502;6.918;2024-03-02T09:18:36;5.73;;;2.20;;
17214;SDS011;8723;51.502;6.918;2024-03-02T09:21:04;2.55;;;1.92;;
17214;SDS011;8723;51.502;6.918;2024-03-02T09:23:33;4.53;;;1.80;;
17214;SDS011;8723;51.502;6.918;2024-03-02T09:26:00;3.47;;;1.67;;
17214;SDS011;8723;51.502;6.918;2024-03-02T09:28:28;1.95;;;1.75;;
17214;SDS011;8723;51.502;6.918;2024-03-02T09:30:55;2.88;;;2.00;;
17214;SDS011;8723;51.502;6.918;2024-03-02T09:33:22;3.13;;;1.80;;
17214;SDS011;8723;51.502;6.918;2024-03-02T09:35:49;2.22;;;1.90;;
17214;SDS011;8723;51.502;6.918;2024-03-02T09:38:16;2.65;;;1.70;;
17214;SDS011;8723;51.502;6.918;2024-03-02T09:40:45;2.90;;;1.90;;
17214;SDS011;8723;51.502;6.918;2024-03-02T09:43:12;2.58;;;2.00;;
17214;SDS011;8723;51.502;6.918;2024-03-02T09:45:39;2.60;;;1.90;;
17214;SDS011;8723;51.502;6.918;2024-03-02T09:48:07;3.75;;;2.10;;
17214;SDS011;8723;51.502;6.918;2024-03-02T09:50:34;2.40;;;1.90;;
17214;SDS011;8723;51.502;6.918;2024-03-02T09:53:02;1.77;;;1.60;;
17214;SDS011;8723;51.502;6.918;2024-03-02T09:55:29;5.55;;;2.65;;
17214;SDS011;8723;51.502;6.918;2024-03-02T09:57:57;2.33;;;1.92;;
17214;SDS011;8723;51.502;6.918;2024-03-02T10:00:24;3.47;;;2.10;;
17214;SDS011;8723;51.502;6.918;2024-03-02T10:02:51;3.83;;;1.83;;
17214;SDS011;8723;51.502;6.918;2024-03-02T10:05:24;2.80;;;1.70;;
17214;SDS011;8723;51.502;6.918;2024-03-02T10:07:58;3.03;;;1.70;;
17214;SDS011;8723;51.502;6.918;2024-03-02T10:10:26;1.75;;;1.65;;
17214;SDS011;8723;51.502;6.918;2024-03-02T10:13:04;2.00;;;1.52;;
17214;SDS011;8723;51.502;6.918;2024-03-02T10:15:31;2.35;;;1.40;;
17214;SDS011;8723;51.502;6.918;2024-03-02T10:17:59;2.47;;;1.50;;
17214;SDS011;8723;51.502;6.918;2024-03-02T10:20:26;2.40;;;1.40;;
17214;SDS011;8723;51.502;6.918;2024-03-02T10:22:54;2.00;;;1.70;;
17214;SDS011;8723;51.502;6.918;2024-03-02T10:25:28;3.05;;;1.70;;
17214;SDS011;8723;51.502;6.918;2024-03-02T10:27:57;2.25;;;1.40;;
17214;SDS011;8723;51.502;6.918;2024-03-02T10:30:25;2.23;;;1.27;;
17214;SDS011;8723;51.502;6.918;2024-03-02T10:32:53;3.25;;;1.40;;
17214;SDS011;8723;51.502;6.918;2024-03-02T10:35:21;2.25;;;1.27;;
17214;SDS011;8723;51.502;6.918;2024-03-02T10:37:49;2.00;;;1.47;;
17214;SDS011;8723;51.502;6.918;2024-03-02T10:40:17;2.35;;;1.20;;
17214;SDS011;8723;51.502;6.918;2024-03-02T10:42:44;3.33;;;1.50;;
17214;SDS011;8723;51.502;6.918;2024-03-02T10:45:12;6.68;;;1.63;;
17214;SDS011;8723;51.502;6.918;2024-03-02T10:47:42;1.58;;;1.48;;
17214;SDS011;8723;51.502;6.918;2024-03-02T10:50:10;3.17;;;1.50;;
17214;SDS011;8723;51.502;6.918;2024-03-02T10:52:37;2.75;;;1.50;;
17214;SDS011;8723;51.502;6.918;2024-03-02T10:55:05;3.63;;;1.60;;
17214;SDS011;8723;51.502;6.918;2024-03-02T10:57:36;2.38;;;1.48;;
17214;SDS011;8723;51.502;6.918;2024-03-02T11:00:07;1.85;;;1.20;;
17214;SDS011;8723;51.502;6.918;2024-03-02T11:02:39;2.97;;;1.38;;
17214;SDS011;8723;51.502;6.918;2024-03-02T11:05:08;1.65;;;1.55;;
17214;SDS011;8723;51.502;6.918;2024-03-02T11:07:37;2.33;;;1.50;;
17214;SDS011;8723;51.502;6.918;2024-03-02T11:10:04;2.88;;;1.40;;
17214;SDS011;8723;51.502;6.918;2024-03-02T11:12:35;3.22;;;1.52;;
17214;SDS011;8723;51.502;6.918;2024-03-02T11:15:03;4.50;;;1.40;;
17214;SDS011;8723;51.502;6.918;2024-03-02T11:17:31;6.32;;;1.98;;
17214;SDS011;8723;51.502;6.918;2024-03-02T11:19:59;2.35;;;1.58;;
17214;SDS011;8723;51.502;6.918;2024-03-02T11:22:27;1.40;;;1.30;;
17214;SDS011;8723;51.502;6.918;2024-03-02T11:24:55;2.92;;;1.38;;
17214;SDS011;8723;51.502;6.918;2024-03-02T11:30:08;4.32;;;1.50;;
17214;SDS011;8723;51.502;6.918;2024-03-02T11:32:35;4.53;;;1.45;;
17214;SDS011;8723;51.502;6.918;2024-03-02T11:35:03;2.17;;;1.40;;
17214;SDS011;8723;51.502;6.918;2024-03-02T11:37:33;6.65;;;1.55;;
17214;SDS011;8723;51.502;6.918;2024-03-02T11:40:00;2.80;;;1.40;;
17214;SDS011;8723;51.502;6.918;2024-03-02T11:42:27;2.70;;;1.40;;
17214;SDS011;8723;51.502;6.918;2024-03-02T11:44:55;2.40;;;1.33;;
17214;SDS011;8723;51.502;6.918;2024-03-02T11:47:23;3.45;;;1.40;;
17214;SDS011;8723;51.502;6.918;2024-03-02T11:49:50;2.13;;;1.10;;
17214;SDS011;8723;51.502;6.918;2024-03-02T11:52:18;1.02;;;0.90;;
17214;SDS011;8723;51.502;6.918;2024-03-02T11:54:47;2.33;;;1.20;;
17214;SDS011;8723;51.502;6.918;2024-03-02T11:57:16;2.05;;;1.25;;
17214;SDS011;8723;51.502;6.918;2024-03-02T11:59:44;2.90;;;1.20;;
17214;SDS011;8723;51.502;6.918;2024-03-02T12:02:15;1.67;;;1.20;;
17214;SDS011;8723;51.502;6.918;2024-03-02T12:04:43;2.85;;;1.05;;
17214;SDS011;8723;51.502;6.918;2024-03-02T12:07:11;2.03;;;1.10;;
17214;SDS011;8723;51.502;6.918;2024-03-02T12:09:38;3.07;;;1.30;;
17214;SDS011;8723;51.502;6.918;2024-03-02T12:12:08;2.95;;;1.33;;
17214;SDS011;8723;51.502;6.918;2024-03-02T12:14:35;2.55;;;1.50;;
17214;SDS011;8723;51.502;6.918;2024-03-02T12:17:03;2.33;;;1.40;;
17214;SDS011;8723;51.502;6.918;2024-03-02T12:19:30;2.17;;;1.20;;
17214;SDS011;8723;51.502;6.918;2024-03-02T12:21:58;3.00;;;1.50;;
17214;SDS011;8723;51.502;6.918;2024-03-02T12:24:26;2.65;;;1.40;;
17214;SDS011;8723;51.502;6.918;2024-03-02T12:26:54;2.17;;;1.35;;
17214;SDS011;8723;51.502;6.918;2024-03-02T12:29:23;2.70;;;1.30;;
17214;SDS011;8723;51.502;6.918;2024-03-02T12:31:50;2.20;;;0.95;;
17214;SDS011;8723;51.502;6.918;2024-03-02T12:34:18;2.10;;;1.30;;
17214;SDS011;8723;51.502;6.918;2024-03-02T12:36:45;1.65;;;1.08;;
17214;SDS011;8723;51.502;6.918;2024-03-02T12:39:15;2.25;;;1.13;;
17214;SDS011;8723;51.502;6.918;2024-03-02T12:41:42;1.60;;;1.17;;
17214;SDS011;8723;51.502;6.918;2024-03-02T12:44:09;1.50;;;1.05;;
17214;SDS011;8723;51.502;6.918;2024-03-02T12:46:38;8.10;;;2.55;;
17214;SDS011;8723;51.502;6.918;2024-03-02T12:49:08;2.10;;;1.08;;
17214;SDS011;8723;51.502;6.918;2024-03-02T12:51:39;3.70;;;1.25;;
17214;SDS011;8723;51.502;6.918;2024-03-02T12:54:06;2.17;;;1.20;;
17214;SDS011;8723;51.502;6.918;2024-03-02T12:56:33;1.00;;;1.00;;
17214;SDS011;8723;51.502;6.918;2024-03-02T12:59:02;1.20;;;1.05;;
17214;SDS011;8723;51.502;6.918;2024-03-02T13:01:29;1.50;;;1.15;;
17214;SDS011;8723;51.502;6.918;2024-03-02T13:03:58;2.70;;;1.10;;
17214;SDS011;8723;51.502;6.918;2024-03-02T13:06:26;2.40;;;0.90;;
17214;SDS011;8723;51.502;6.918;2024-03-02T13:08:54;2.38;;;1.05;;
17214;SDS011;8723;51.502;6.918;2024-03-02T13:11:22;1.30;;;1.20;;
17214;SDS011;8723;51.502;6.918;2024-03-02T13:13:49;1.88;;;1.20;;
17214;SDS011;8723;51.502;6.918;2024-03-02T13:16:17;1.33;;;0.90;;
17214;SDS011;8723;51.502;6.918;2024-03-02T13:18:45;1.30;;;1.10;;
17214;SDS011;8723;51.502;6.918;2024-03-02T13:21:14;2.23;;;1.07;;
17214;SDS011;8723;51.502;6.918;2024-03-02T13:23:41;1.15;;;1.05;;
17214;SDS011;8723;51.502;6.918;2024-03-02T13:26:08;1.65;;;0.95;;
17214;SDS011;8723;51.502;6.918;2024-03-02T13:28:37;1.23;;;1.13;;
17214;SDS011;8723;51.502;6.918;2024-03-02T13:31:05;1.35;;;1.10;;
17214;SDS011;8723;51.502;6.918;2024-03-02T13:33:32;1.15;;;1.00;;
17214;SDS011;8723;51.502;6.918;2024-03-02T13:35:59;1.37;;;1.00;;
17214;SDS011;8723;51.502;6.918;2024-03-02T13:38:29;2.03;;;1.05;;
17214;SDS011;8723;51.502;6.918;2024-03-02T13:40:56;0.90;;;0.90;;
17214;SDS011;8723;51.502;6.918;2024-03-02T13:43:25;1.20;;;1.00;;
17214;SDS011;8723;51.502;6.918;2024-03-02T13:45:53;1.30;;;0.93;;
17214;SDS011;8723;51.502;6.918;2024-03-02T13:48:20;0.90;;;0.80;;
17214;SDS011;8723;51.502;6.918;2024-03-02T13:50:47;0.88;;;0.88;;
17214;SDS011;8723;51.502;6.918;2024-03-02T13:53:14;2.03;;;0.93;;
17214;SDS011;8723;51.502;6.918;2024-03-02T13:55:43;1.55;;;0.90;;
17214;SDS011;8723;51.502;6.918;2024-03-02T13:58:10;2.20;;;0.90;;
17214;SDS011;8723;51.502;6.918;2024-03-02T14:00:37;1.73;;;1.00;;
17214;SDS011;8723;51.502;6.918;2024-03-02T14:03:05;0.70;;;0.70;;
17214;SDS011;8723;51.502;6.918;2024-03-02T14:05:33;0.90;;;0.90;;
17214;SDS011;8723;51.502;6.918;2024-03-02T14:08:02;1.25;;;1.00;;
17214;SDS011;8723;51.502;6.918;2024-03-02T14:10:29;0.85;;;0.85;;
17214;SDS011;8723;51.502;6.918;2024-03-02T14:12:58;0.95;;;0.93;;
17214;SDS011;8723;51.502;6.918;2024-03-02T14:15:25;2.15;;;0.90;;
17214;SDS011;8723;51.502;6.918;2024-03-02T14:17:52;2.20;;;0.90;;
17214;SDS011;8723;51.502;6.918;2024-03-02T14:20:19;1.17;;;0.93;;
17214;SDS011;8723;51.502;6.918;2024-03-02T14:22:48;1.30;;;0.80;;
17214;SDS011;8723;51.502;6.918;2024-03-02T14:25:16;1.67;;;1.00;;
17214;SDS011;8723;51.502;6.918;2024-03-02T14:27:44;1.27;;;0.90;;
17214;SDS011;8723;51.502;6.918;2024-03-02T14:30:13;0.82;;;0.82;;
17214;SDS011;8723;51.502;6.918;2024-03-02T14:32:41;1.33;;;1.00;;
17214;SDS011;8723;51.502;6.918;2024-03-02T14:35:08;1.40;;;0.82;;
17214;SDS011;8723;51.502;6.918;2024-03-02T14:37:36;1.17;;;1.00;;
17214;SDS011;8723;51.502;6.918;2024-03-02T14:40:04;1.10;;;1.00;;
17214;SDS011;8723;51.502;6.918;2024-03-02T14:42:31;1.10;;;1.00;;
17214;SDS011;8723;51.502;6.918;2024-03-02T14:44:59;2.08;;;0.95;;
17214;SDS011;8723;51.502;6.918;2024-03-02T14:47:29;1.40;;;0.90;;
17214;SDS011;8723;51.502;6.918;2024-03-02T14:49:56;3.92;;;1.10;;
17214;SDS011;8723;51.502;6.918;2024-03-02T14:52:25;1.48;;;0.90;;
17214;SDS011;8723;51.502;6.918;2024-03-02T14:54:52;1.33;;;0.90;;
17214;SDS011;8723;51.502;6.918;2024-03-02T14:57:19;0.73;;;0.73;;
17214;SDS011;8723;51.502;6.918;2024-03-02T14:59:46;1.00;;;0.85;;
17214;SDS011;8723;51.502;6.918;2024-03-02T15:02:13;1.27;;;0.82;;
17214;SDS011;8723;51.502;6.918;2024-03-02T15:04:42;1.20;;;0.90;;
17214;SDS011;8723;51.502;6.918;2024-03-02T15:07:10;1.00;;;0.93;;